Flight Track Log - Related Links

Times and Time Zones

All times are in EDT time to prevent confusion due to time zone crossing. See the DAL1283 flight status page for this flight to view local times or setup timezone preferences in your user account.

Time Position Orientation Groundspeed Altitude Reporting Facility
EDT Latitude Longitude Course Direction KTS MPH feet Rate Location/Type
Wed 07:11:41 AM 42.9500 -71.4167 202° Southwest 162 186 1,400  Level KA90
Wed 07:14:00 AM 43.0788 -71.0015 71° East  Level FlightAware Approximate
Wed 07:14:02 AM 43.0342 -71.2783 50° Northeast 229 264 6,900  Level Boston Center
Wed 07:15:00 AM 43.0041 -70.8874 144° Southeast  Level FlightAware Approximate
Wed 07:15:02 AM 43.0500 -71.1872 77° East 260 299 9,500  Level Boston Center
Wed 07:16:00 AM 42.8956 -70.9155 202° Southwest  Level FlightAware Approximate
Wed 07:16:02 AM 43.0736 -71.0586 76° East 299 344 10,100  Level Boston Center
Wed 07:17:02 AM 43.0450 -70.9514 110° East 326 375 10,800 1,800 Climbing Boston Center
Wed 07:18:02 AM 42.9425 -70.9086 163° South 285 328 13,700 2,600 Climbing Boston Center
Wed 07:19:02 AM 42.8472 -70.9533 199° South 363 418 16,000 2,200 Climbing Boston Center
Wed 07:20:02 AM 42.7292 -71.0100 199° South 384 442 18,100 1,700 Climbing Boston Center
Wed 07:21:02 AM 42.6317 -71.0544 199° South 418 481 19,400 1,350 Climbing Boston Center
Wed 07:22:02 AM 42.5200 -71.1217 204° Southwest 424 488 20,800 1,450 Climbing Boston Center
Wed 07:23:02 AM 42.4675 -71.2750 245° Southwest 414 476 22,300 1,600 Climbing Boston Center
Wed 07:24:02 AM 42.4356 -71.4414 255° West 431 496 24,000 1,500 Climbing Boston Center
Wed 07:25:14 AM 42.3972 -71.6050 252° West 444 511 25,600 1,500 Climbing Boston Center
Wed 07:26:14 AM 42.3547 -71.8053 254° West 464 534 27,300 2,000 Climbing Boston Center
Wed 07:27:14 AM 42.3203 -71.9711 254° West 464 534 29,600 1,400 Climbing Boston Center
Wed 07:28:14 AM 42.2853 -72.1342 254° West 459 528 30,100 700 Climbing Boston Center
Wed 07:29:14 AM 42.2503 -72.3025 254° West 459 528 31,000 1,050 Climbing Boston Center
Wed 07:30:14 AM 42.2150 -72.4653 254° West 459 528 32,200 1,100 Climbing Boston Center
Wed 07:31:14 AM 42.1794 -72.6306 254° West 459 528 33,200 650 Climbing Boston Center
Wed 07:32:14 AM 42.1247 -72.7872 245° Southwest 459 528 33,500 400 Climbing Boston Center
Wed 07:33:14 AM 42.0367 -72.9347 231° Southwest 469 540 34,000 250 Climbing Boston Center
Wed 07:34:14 AM 41.9528 -73.0653 229° Southwest 485 558 34,000  Level Boston Center
Wed 07:35:14 AM 41.8417 -73.1675 214° Southwest 491 565 34,000  Level Boston Center
Wed 07:36:14 AM 41.7264 -73.2661 213° Southwest 491 565 34,000  Level Boston Center
Wed 07:38:05 AM 41.5511 -73.4794 222° Southwest 475 547 34,000  Level New York Center
Wed 07:39:06 AM 41.4647 -73.6172 230° Southwest 482 555 34,000  Level New York Center
Wed 07:40:05 AM 41.3783 -73.7461 228° Southwest 482 555 34,000  Level New York Center
Wed 07:41:05 AM 41.2914 -73.8803 229° Southwest 482 555 34,000  Level New York Center
Wed 07:42:04 AM 41.2025 -74.0114 228° Southwest 487 560 34,000  Level New York Center
Wed 07:43:04 AM 41.1136 -74.1419 228° Southwest 487 560 34,000  Level New York Center
Wed 07:44:06 AM 41.0194 -74.2914 230° Southwest 487 560 34,000  Level New York Center
Wed 07:45:04 AM 40.9361 -74.4297 231° Southwest 482 555 34,000  Level New York Center
Wed 07:46:05 AM 40.8528 -74.5625 230° Southwest 482 555 34,000  Level New York Center
Wed 07:47:06 AM 40.7694 -74.6947 230° Southwest 482 555 34,000  Level New York Center
Wed 07:48:03 AM 40.6878 -74.8269 231° Southwest 482 555 34,000  Level New York Center
Wed 07:49:05 AM 40.6061 -74.9589 231° Southwest 482 555 34,000  Level New York Center
Wed 07:50:04 AM 40.5200 -75.0900 229° Southwest 482 555 34,000  Level New York Center
Wed 07:51:05 AM 40.4381 -75.2214 231° Southwest 482 555 34,000  Level New York Center
Wed 07:52:06 AM 40.3558 -75.3547 231° Southwest 482 555 34,000  Level New York Center
Wed 07:53:04 AM 40.2714 -75.4853 230° Southwest 482 555 34,000  Level New York Center
Wed 07:54:06 AM 40.1953 -75.6186 233° Southwest 482 555 34,000  Level New York Center
Wed 07:55:04 AM 40.1269 -75.7578 237° Southwest 470 541 34,000  Level New York Center
Wed 07:56:07 AM 40.0561 -75.8992 237° Southwest 464 534 34,000  Level New York Center
Wed 07:57:05 AM 39.9833 -76.0375 236° Southwest 464 534 34,000  Level New York Center
Wed 07:58:06 AM 39.9147 -76.1731 237° Southwest 464 534 34,000  Level New York Center
Wed 07:59:05 AM 39.8464 -76.3003 235° Southwest 469 540 34,000  Level New York Center
Wed 08:00:05 AM 39.7706 -76.4483 236° Southwest 469 540 34,000  Level New York Center
Wed 08:01:06 AM 39.6992 -76.5831 235° Southwest 469 540 34,000  Level New York Center
Wed 08:02:15 AM 39.6144 -76.7417 235° Southwest 485 558 34,000  Level Washington Center
Wed 08:03:16 AM 39.5442 -76.8778 236° Southwest 473 544 34,000  Level Washington Center
Wed 08:04:16 AM 39.4658 -77.0056 232° Southwest 468 539 34,000  Level Washington Center
Wed 08:05:14 AM 39.3664 -77.1111 219° Southwest 463 533 34,000  Level Washington Center
Wed 08:06:14 AM 39.2692 -77.2161 220° Southwest 458 527 34,000  Level Washington Center
Wed 08:07:16 AM 39.1700 -77.3183 219° Southwest 468 539 34,000  Level Washington Center
Wed 08:08:16 AM 39.0706 -77.4203 219° Southwest 468 539 34,000  Level Washington Center
Wed 08:09:14 AM 38.9708 -77.5272 220° Southwest 468 539 34,000  Level Washington Center
Wed 08:10:14 AM 38.8733 -77.6289 219° Southwest 468 539 34,000  Level Washington Center
Wed 08:11:15 AM 38.7736 -77.7297 218° Southwest 462 532 34,000  Level Washington Center
Wed 08:12:15 AM 38.6800 -77.8256 219° Southwest 472 543 34,000  Level Washington Center
Wed 08:13:16 AM 38.5944 -77.9425 227° Southwest 464 534 34,000  Level Washington Center
Wed 08:14:16 AM 38.5208 -78.0703 234° Southwest 455 524 34,000  Level Washington Center
Wed 08:15:14 AM 38.4453 -78.2003 233° Southwest 460 529 34,000  Level Washington Center
Wed 08:16:14 AM 38.3694 -78.3272 233° Southwest 460 529 34,000  Level Washington Center
Wed 08:17:15 AM 38.2889 -78.4672 234° Southwest 454 522 34,000  Level Washington Center
Wed 08:18:15 AM 38.2172 -78.5886 233° Southwest 442 509 34,000  Level Washington Center
Wed 08:19:16 AM 38.1431 -78.7125 233° Southwest 442 509 34,000  Level Washington Center
Wed 08:20:14 AM 38.0689 -78.8361 233° Southwest 442 509 34,000  Level Washington Center
Wed 08:21:15 AM 38.0014 -78.9464 232° Southwest 447 514 34,000  Level Washington Center
Wed 08:22:16 AM 37.9289 -79.0669 233° Southwest 447 514 34,000  Level Washington Center
Wed 08:23:14 AM 37.8464 -79.1842 228° Southwest 447 514 34,000  Level Washington Center
Wed 08:24:14 AM 37.7678 -79.2958 228° Southwest 447 514 34,000  Level Washington Center
Wed 08:25:15 AM 37.6742 -79.4225 227° Southwest 447 514 34,000  Level Washington Center
Wed 08:26:15 AM 37.5997 -79.5264 228° Southwest 447 514 34,000  Level Washington Center
Wed 08:27:16 AM 37.5103 -79.6472 227° Southwest 447 514 34,000  Level Washington Center
Wed 08:28:13 AM 37.4336 -79.7531 228° Southwest 454 522 34,000 254 Level Washington Center
Wed 08:29:14 AM 37.3506 -79.8636 227° Southwest 454 522 34,500 632 Climbing Washington Center
Wed 08:31:04 AM 37.1972 -80.0706 227° Southwest 436 502 35,800 459 Climbing Atlanta Center
Wed 08:32:04 AM 37.1294 -80.1625 227° Southwest 420 483 35,800 -50 Level Atlanta Center
Wed 08:33:04 AM 37.0472 -80.2706 226° Southwest 415 478 35,700 -400 Descending Atlanta Center
Wed 08:34:04 AM 36.9711 -80.3756 228° Southwest 415 478 35,000 -350 Descending Atlanta Center
Wed 08:35:04 AM 36.8911 -80.4831 227° Southwest 415 478 35,000  Level Atlanta Center
Wed 08:36:04 AM 36.8025 -80.5986 226° Southwest 415 478 35,000  Level Atlanta Center
Wed 08:37:04 AM 36.7342 -80.6869 226° Southwest 399 459 35,000  Level Atlanta Center
Wed 08:38:04 AM 36.6578 -80.7911 228° Southwest 404 465 35,000  Level Atlanta Center
Wed 08:39:04 AM 36.5811 -80.8950 227° Southwest 410 472 35,000  Level Atlanta Center
Wed 08:40:04 AM 36.5044 -80.9989 227° Southwest 410 472 35,000 -500 Level Atlanta Center
Wed 08:41:04 AM 36.4236 -81.1025 226° Southwest 410 472 34,000 -500 Descending Atlanta Center
Wed 08:42:04 AM 36.3467 -81.2058 227° Southwest 410 472 34,000  Level Atlanta Center
Wed 08:43:04 AM 36.2658 -81.3142 227° Southwest 410 472 34,000  Level Atlanta Center
Wed 08:44:04 AM 36.1786 -81.4253 226° Southwest 404 465 34,000  Level Atlanta Center
Wed 08:45:04 AM 36.1014 -81.5281 227° Southwest 410 472 34,000  Level Atlanta Center
Wed 08:46:04 AM 36.0200 -81.6333 226° Southwest 420 483 34,000  Level Atlanta Center
Wed 08:47:04 AM 35.9408 -81.7356 226° Southwest 411 473 34,000  Level Atlanta Center
Wed 08:48:04 AM 35.8611 -81.8378 226° Southwest 411 473 34,000  Level Atlanta Center
Wed 08:49:04 AM 35.7817 -81.9372 225° Southwest 411 473 34,000  Level Atlanta Center
Wed 08:50:04 AM 35.7042 -82.0389 227° Southwest 405 466 34,000  Level Atlanta Center
Wed 08:51:04 AM 35.6242 -82.1406 226° Southwest 410 472 34,000  Level Atlanta Center
Wed 08:52:04 AM 35.5464 -82.2392 226° Southwest 404 465 34,000  Level Atlanta Center
Wed 08:53:04 AM 35.4667 -82.3431 227° Southwest 409 471 34,000  Level Atlanta Center
Wed 08:54:04 AM 35.3844 -82.4467 226° Southwest 409 471 34,000 -850 Level Atlanta Center
Wed 08:55:04 AM 35.2983 -82.5500 224° Southwest 416 479 32,300  Descending Atlanta Center
Wed 08:56:04 AM 35.2075 -82.6483 222° Southwest 430 495 34,000 -2,250 Climbing Atlanta Center
Wed 08:57:04 AM 35.1147 -82.7464 221° Southwest 443 510 27,800 -4,450 Descending Atlanta Center
Wed 08:58:04 AM 35.0178 -82.8544 222° Southwest 456 525 25,100 -1,900 Descending Atlanta Center
Wed 08:59:04 AM 34.9186 -82.9572 220° Southwest 468 539 24,000 -550 Descending Atlanta Center
Wed 09:00:04 AM 34.8236 -83.0672 224° Southwest 475 547 24,000  Level Atlanta Center
Wed 09:01:04 AM 34.7219 -83.1669 219° Southwest 480 552 24,000  Level Atlanta Center
Wed 09:02:04 AM 34.6247 -83.2764 223° Southwest 475 547 24,000 -500 Level Atlanta Center
Wed 09:03:04 AM 34.5272 -83.3783 221° Southwest 475 547 23,000 -1,500 Descending Atlanta Center
Wed 09:04:04 AM 34.4336 -83.4797 222° Southwest 470 541 21,000 -2,450 Descending Atlanta Center
Wed 09:05:04 AM 34.3422 -83.5758 221° Southwest 459 528 18,100 -2,750 Descending Atlanta Center
Wed 09:06:04 AM 34.2528 -83.6694 221° Southwest 433 498 15,500 -2,050 Descending Atlanta Center
Wed 09:07:04 AM 34.1758 -83.7500 221° Southwest 428 493 14,000 -750 Descending Atlanta Center
Wed 09:08:04 AM 34.1008 -83.8306 222° Southwest 390 449 14,000 -191 Level Atlanta Center
Wed 09:08:38 AM 34.0500 -83.8833 221° Southwest 311 358 13,700 -600 Descending Atlanta TRACON
Wed 09:09:44 AM 33.9667 -83.9667 220° Southwest 392 451 13,000 -843 Descending Atlanta TRACON
Wed 09:10:39 AM 33.9000 -84.0500 226° Southwest 388 447 12,000 -750 Descending Atlanta TRACON
Wed 09:11:04 AM 33.8736 -84.0739 217° Southwest 391 450 12,000  Level Atlanta Center
Wed 09:11:44 AM 33.8000 -84.1333 214° Southwest 384 442 12,000  Level Atlanta TRACON
Wed 09:12:44 AM 33.7333 -84.2167 226° Southwest 376 433 12,000 -200 Level Atlanta TRACON
Wed 09:13:44 AM 33.7333 -84.3333 270° West 311 358 11,600 -1,000 Descending Atlanta TRACON
Wed 09:14:44 AM 33.7333 -84.4333 270° West 311 358 10,000 -1,826 Descending Atlanta TRACON
Wed 09:15:39 AM 33.7333 -84.5167 270° West 291 335 8,100 -1,617 Descending Atlanta TRACON
Wed 09:16:39 AM 33.7333 -84.6167 270° West 284 327 6,900 -1,400 Descending Atlanta TRACON
Wed 09:17:39 AM 33.7333 -84.7000 270° West 278 320 5,300 -950 Descending Atlanta TRACON
Wed 09:18:39 AM 33.7333 -84.8000 270° West 267 307 5,000 -150 Descending Atlanta TRACON
Wed 09:19:39 AM 33.7167 -84.8667 253° West 214 246 5,000  Level Atlanta TRACON
Wed 09:20:39 AM 33.6667 -84.8833 196° South 184 212 5,000  Level Atlanta TRACON
Wed 09:21:39 AM 33.6500 -84.8333 112° Southeast 169 194 5,000  Level Atlanta TRACON
Wed 09:22:39 AM 33.6500 -84.7667 90° East 171 197 5,000  Level Atlanta TRACON
Wed 09:23:33 AM 33.6500 -84.7167 90° East 173 199 5,000 -150 Level Atlanta TRACON
Wed 09:24:39 AM 33.6500 -84.6500 90° East 175 201 4,700 -600 Descending Atlanta TRACON
Wed 09:25:33 AM 33.6500 -84.6000 90° East 169 194 3,800 -1,000 Descending Atlanta TRACON

Login

Don't have an account? Register now (free) for customized features, flight alerts, and more!